createdAt,value
2024-02-19T00:01:09.705Z,8.88
2024-02-19T00:03:48.605Z,10.38
2024-02-19T00:06:15.696Z,12.73
2024-02-19T00:08:42.440Z,12.25
2024-02-19T00:11:10.511Z,11.35
2024-02-19T00:13:38.492Z,10.02
2024-02-19T00:16:05.955Z,11.05
2024-02-19T00:18:32.835Z,11.13
2024-02-19T00:21:00.504Z,10.82
2024-02-19T00:23:27.978Z,10.02
2024-02-19T00:25:55.135Z,8.77
2024-02-19T00:28:22.076Z,12.88
2024-02-19T00:30:49.470Z,8.93
2024-02-19T00:33:16.487Z,8.20
2024-02-19T00:35:43.570Z,9.30
2024-02-19T00:38:10.921Z,8.75
2024-02-19T00:40:38.995Z,9.30
2024-02-19T00:43:06.977Z,9.90
2024-02-19T00:45:34.157Z,9.07
2024-02-19T00:48:01.106Z,8.13
2024-02-19T00:50:28.260Z,8.45
2024-02-19T00:52:55.023Z,8.70
2024-02-19T00:55:22.501Z,8.82
2024-02-19T00:57:49.318Z,7.95
2024-02-19T01:00:17.615Z,8.43
2024-02-19T01:02:44.441Z,10.43
2024-02-19T01:05:11.583Z,7.82
2024-02-19T01:07:38.463Z,7.63
2024-02-19T01:10:06.083Z,7.57
2024-02-19T01:12:32.876Z,9.82
2024-02-19T01:14:59.882Z,10.40
2024-02-19T01:17:26.960Z,7.65
2024-02-19T01:19:54.140Z,6.85
2024-02-19T01:22:21.090Z,7.68
2024-02-19T01:24:49.530Z,10.98
2024-02-19T01:27:16.403Z,8.05
2024-02-19T01:29:43.446Z,9.45
2024-02-19T01:32:10.319Z,8.18
2024-02-19T01:34:37.575Z,10.52
2024-02-19T01:37:06.217Z,6.95
2024-02-19T01:39:33.872Z,8.10
2024-02-19T01:42:00.652Z,7.28
2024-02-19T01:44:27.738Z,10.02
2024-02-19T01:46:54.799Z,10.35
2024-02-19T01:49:22.260Z,7.53
2024-02-19T01:51:49.992Z,8.77
2024-02-19T01:54:17.723Z,10.20
2024-02-19T01:56:45.115Z,8.35
2024-02-19T01:59:15.565Z,9.23
2024-02-19T02:01:43.957Z,8.88
2024-02-19T02:04:12.934Z,7.60
2024-02-19T02:06:41.009Z,8.60
2024-02-19T02:09:08.642Z,9.50
2024-02-19T02:11:35.852Z,7.85
2024-02-19T02:14:03.329Z,9.73
2024-02-19T02:16:30.463Z,8.88
2024-02-19T02:18:57.964Z,8.57
2024-02-19T02:21:25.245Z,8.35
2024-02-19T02:23:52.659Z,7.55
2024-02-19T02:26:19.481Z,9.15
2024-02-19T02:28:46.566Z,7.97
2024-02-19T02:31:13.531Z,9.13
2024-02-19T02:33:40.933Z,8.63
2024-02-19T02:36:10.943Z,7.90
2024-02-19T02:41:05.011Z,9.48
2024-02-19T02:43:34.972Z,9.43
2024-02-19T02:46:02.449Z,8.98
2024-02-19T02:48:29.820Z,8.07
2024-02-19T02:50:56.639Z,8.88
2024-02-19T02:53:24.853Z,9.98
2024-02-19T02:55:51.793Z,8.23
2024-02-19T02:58:19.006Z,10.27
2024-02-19T03:00:46.018Z,9.85
2024-02-19T03:03:13.270Z,8.02
2024-02-19T03:05:40.315Z,8.10
2024-02-19T03:08:08.818Z,9.45
2024-02-19T03:10:35.777Z,10.18
2024-02-19T03:13:04.078Z,8.40
2024-02-19T03:15:31.200Z,10.82
2024-02-19T03:17:58.341Z,8.93
2024-02-19T03:20:25.247Z,9.20
2024-02-19T03:22:53.327Z,8.75
2024-02-19T03:25:20.520Z,10.88
2024-02-19T03:27:47.965Z,9.90
2024-02-19T03:30:15.116Z,10.18
2024-02-19T03:32:42.268Z,9.60
2024-02-19T03:35:09.373Z,10.95
2024-02-19T03:37:36.820Z,10.98
2024-02-19T03:40:07.942Z,11.85
2024-02-19T03:42:36.185Z,9.52
2024-02-19T03:45:03.628Z,10.52
2024-02-19T03:47:30.687Z,11.23
2024-02-19T03:49:57.955Z,9.57
2024-02-19T03:52:25.168Z,13.35
2024-02-19T03:54:52.290Z,9.88
2024-02-19T03:57:19.588Z,9.88
2024-02-19T03:59:46.425Z,11.35
2024-02-19T04:02:13.547Z,10.52
2024-02-19T04:04:40.453Z,9.50
2024-02-19T04:07:07.775Z,11.90
2024-02-19T04:09:36.418Z,11.70
2024-02-19T04:12:05.755Z,10.10
2024-02-19T04:14:32.745Z,10.15
2024-02-19T04:17:00.165Z,10.85
2024-02-19T04:19:29.015Z,9.20
2024-02-19T04:21:56.279Z,10.57
2024-02-19T04:24:23.063Z,11.50
2024-02-19T04:26:50.104Z,10.02
2024-02-19T04:29:17.122Z,10.90
2024-02-19T04:31:44.435Z,9.93
2024-02-19T04:34:11.913Z,11.18
2024-02-19T04:36:39.214Z,13.30
2024-02-19T04:39:06.070Z,17.65
2024-02-19T04:41:33.454Z,8.48
2024-02-19T04:44:00.351Z,9.45
2024-02-19T04:46:27.629Z,9.68
2024-02-19T04:48:54.883Z,11.45
2024-02-19T04:51:22.093Z,12.55
2024-02-19T04:53:48.868Z,9.90
2024-02-19T04:56:16.438Z,12.00
2024-02-19T04:58:43.217Z,10.48
2024-02-19T05:01:10.612Z,10.30
2024-02-19T05:03:37.597Z,13.05
2024-02-19T05:06:05.172Z,11.40
2024-02-19T05:08:31.994Z,11.38
2024-02-19T05:10:59.144Z,11.13
2024-02-19T05:13:26.059Z,11.10
2024-02-19T05:15:53.345Z,13.23
2024-02-19T05:18:20.677Z,11.68
2024-02-19T05:20:48.247Z,11.82
2024-02-19T05:23:15.087Z,13.90
2024-02-19T05:25:42.187Z,11.25
2024-02-19T05:28:09.089Z,11.77
2024-02-19T05:30:37.625Z,10.88
2024-02-19T05:33:05.744Z,12.52
2024-02-19T05:35:33.033Z,11.45
2024-02-19T05:37:59.894Z,11.38
2024-02-19T05:40:27.078Z,12.68
2024-02-19T05:42:54.145Z,12.88
2024-02-19T05:45:21.293Z,12.35
2024-02-19T05:47:49.338Z,10.40
2024-02-19T05:50:16.887Z,11.93
2024-02-19T05:52:43.822Z,13.73
2024-02-19T05:55:11.226Z,10.68
2024-02-19T05:57:39.095Z,10.98
2024-02-19T06:00:08.573Z,11.43
2024-02-19T06:02:35.718Z,12.07
2024-02-19T06:05:05.774Z,13.95
2024-02-19T06:07:34.000Z,11.20
2024-02-19T06:10:01.137Z,11.63
2024-02-19T06:12:28.119Z,10.45
2024-02-19T06:14:55.174Z,12.70
2024-02-19T06:17:22.921Z,11.85
2024-02-19T06:19:50.061Z,10.52
2024-02-19T06:22:16.861Z,12.02
2024-02-19T06:24:47.299Z,10.50
2024-02-19T06:27:14.279Z,11.05
2024-02-19T06:29:41.489Z,13.70
2024-02-19T06:32:08.349Z,12.57
2024-02-19T06:34:36.638Z,12.82
2024-02-19T06:37:03.973Z,11.43
2024-02-19T06:39:31.131Z,12.10
2024-02-19T06:41:58.625Z,12.88
2024-02-19T06:44:25.683Z,12.45
2024-02-19T06:46:52.506Z,12.10
2024-02-19T06:49:23.449Z,12.80
2024-02-19T06:51:51.739Z,10.93
2024-02-19T06:54:19.114Z,12.68
2024-02-19T06:56:46.010Z,10.82
2024-02-19T06:59:13.401Z,14.75
2024-02-19T07:01:40.527Z,12.77
2024-02-19T07:04:07.795Z,13.52
2024-02-19T07:06:34.653Z,12.38
2024-02-19T07:09:01.932Z,14.98
2024-02-19T07:11:28.825Z,12.55
2024-02-19T07:13:56.873Z,14.48
2024-02-19T07:16:24.219Z,12.02
2024-02-19T07:18:51.615Z,11.55
2024-02-19T07:21:22.163Z,13.98
2024-02-19T07:23:49.443Z,12.95
2024-02-19T07:26:16.435Z,12.50
2024-02-19T07:28:43.737Z,10.98
2024-02-19T07:31:10.992Z,11.55
2024-02-19T07:33:38.193Z,12.98
2024-02-19T07:36:05.316Z,11.80
2024-02-19T07:38:32.361Z,14.55
2024-02-19T07:40:59.210Z,11.60
2024-02-19T07:43:26.256Z,13.00
2024-02-19T07:45:53.003Z,11.32
2024-02-19T07:48:20.201Z,12.77
2024-02-19T07:50:47.569Z,13.07
2024-02-19T07:53:17.032Z,12.05
2024-02-19T07:55:44.929Z,11.13
2024-02-19T07:58:12.242Z,9.90
2024-02-19T08:00:39.143Z,13.18
2024-02-19T08:03:06.327Z,10.25
2024-02-19T08:05:33.299Z,10.20
2024-02-19T08:08:00.613Z,12.35
2024-02-19T08:10:27.587Z,9.65
2024-02-19T08:12:54.880Z,9.32
2024-02-19T08:15:21.788Z,11.85
2024-02-19T08:17:50.037Z,12.10
2024-02-19T08:20:16.923Z,12.02
2024-02-19T08:22:46.704Z,11.55
2024-02-19T08:27:43.715Z,15.63
2024-02-19T08:30:10.861Z,13.00
2024-02-19T08:32:38.028Z,14.02
2024-02-19T08:35:05.762Z,12.52
2024-02-19T08:37:32.918Z,15.65
2024-02-19T08:39:59.819Z,15.50
2024-02-19T08:42:26.879Z,11.43
2024-02-19T08:44:53.618Z,14.05
2024-02-19T08:47:20.760Z,10.88
2024-02-19T08:49:47.892Z,9.27
2024-02-19T08:52:15.753Z,8.98
2024-02-19T08:54:42.691Z,9.35
2024-02-19T08:57:09.807Z,9.98
2024-02-19T08:59:36.888Z,11.15
2024-02-19T09:02:04.711Z,9.68
2024-02-19T09:04:31.926Z,8.38
2024-02-19T09:06:59.417Z,13.38
2024-02-19T09:09:26.343Z,9.23
2024-02-19T09:11:53.421Z,9.65
2024-02-19T09:14:20.280Z,10.18
2024-02-19T09:16:47.485Z,8.95
2024-02-19T09:19:16.864Z,9.60
2024-02-19T09:21:46.832Z,8.98
2024-02-19T09:24:13.630Z,8.52
2024-02-19T09:26:41.638Z,10.30
2024-02-19T09:29:08.490Z,8.63
2024-02-19T09:31:35.607Z,8.15
2024-02-19T09:34:02.620Z,9.95
2024-02-19T09:36:29.811Z,9.52
2024-02-19T09:38:56.556Z,9.63
2024-02-19T09:41:24.059Z,11.68
2024-02-19T09:43:52.684Z,12.27
2024-02-19T09:46:23.681Z,12.50
2024-02-19T09:48:51.916Z,14.90
2024-02-19T09:51:29.319Z,10.75
2024-02-19T09:54:01.184Z,11.23
2024-02-19T09:56:28.722Z,10.32
2024-02-19T09:58:56.525Z,10.57
2024-02-19T10:01:23.603Z,11.73
2024-02-19T10:03:52.409Z,12.82
2024-02-19T10:06:19.582Z,11.38
2024-02-19T10:08:46.830Z,12.88
2024-02-19T10:11:16.187Z,17.67
2024-02-19T10:13:43.743Z,13.90
2024-02-19T10:16:11.192Z,10.55
2024-02-19T10:18:39.319Z,7.72
2024-02-19T10:21:06.509Z,8.65
2024-02-19T10:23:34.120Z,8.05
2024-02-19T10:26:01.209Z,7.05
2024-02-19T10:28:29.904Z,6.63
2024-02-19T10:30:56.966Z,6.47
2024-02-19T10:33:23.871Z,6.32
2024-02-19T10:35:51.250Z,7.90
2024-02-19T10:38:18.307Z,6.88
2024-02-19T10:40:45.526Z,6.55
2024-02-19T10:43:12.873Z,6.22
2024-02-19T10:45:40.675Z,8.48
2024-02-19T10:48:09.085Z,8.82
2024-02-19T10:50:37.989Z,7.77
2024-02-19T10:53:07.154Z,7.93
2024-02-19T10:55:45.939Z,7.07
2024-02-19T10:58:26.689Z,5.38
2024-02-19T11:00:59.036Z,7.38
2024-02-19T11:03:28.823Z,5.68
2024-02-19T11:06:01.106Z,5.53
2024-02-19T11:08:30.111Z,8.65
2024-02-19T11:10:58.796Z,8.18
2024-02-19T11:13:28.958Z,6.70
2024-02-19T11:15:56.965Z,8.20
2024-02-19T11:18:24.214Z,5.90
2024-02-19T11:20:53.063Z,5.13
2024-02-19T11:23:21.657Z,8.02
2024-02-19T11:25:49.311Z,7.27
2024-02-19T11:28:16.404Z,12.02
2024-02-19T11:30:43.686Z,4.75
2024-02-19T11:33:12.767Z,4.82
2024-02-19T11:35:44.877Z,6.85
2024-02-19T11:38:12.535Z,5.05
2024-02-19T11:40:40.282Z,7.18
2024-02-19T11:43:07.427Z,5.97
2024-02-19T11:45:38.395Z,7.15
2024-02-19T11:48:06.415Z,5.68
2024-02-19T11:50:33.640Z,5.65
2024-02-19T11:53:03.195Z,6.68
2024-02-19T11:58:02.548Z,6.18
2024-02-19T12:00:31.576Z,3.88
2024-02-19T12:02:59.407Z,4.30
2024-02-19T12:05:27.464Z,4.57
2024-02-19T12:07:54.632Z,3.40
2024-02-19T12:10:22.518Z,4.72
2024-02-19T12:12:51.415Z,5.07
2024-02-19T12:15:20.698Z,6.40
2024-02-19T12:17:49.905Z,6.43
2024-02-19T12:20:19.244Z,10.27
2024-02-19T12:22:46.370Z,6.53
2024-02-19T12:25:16.358Z,4.60
2024-02-19T12:27:43.515Z,6.28
2024-02-19T12:30:11.837Z,6.50
2024-02-19T12:32:40.699Z,6.75
2024-02-19T12:35:08.782Z,5.47
2024-02-19T12:37:39.378Z,7.57
2024-02-19T12:40:07.773Z,11.93
2024-02-19T12:42:35.189Z,7.60
2024-02-19T12:45:02.448Z,7.60
2024-02-19T12:47:29.392Z,8.93
2024-02-19T12:49:56.251Z,9.25
2024-02-19T12:52:25.003Z,9.70
2024-02-19T12:54:51.886Z,8.68
2024-02-19T12:57:21.227Z,9.07
2024-02-19T12:59:49.962Z,7.30
2024-02-19T13:02:17.865Z,7.35
2024-02-19T13:04:45.163Z,9.65
2024-02-19T13:07:12.504Z,9.82
2024-02-19T13:09:39.649Z,8.57
2024-02-19T13:12:08.708Z,13.73
2024-02-19T13:14:37.612Z,9.90
2024-02-19T13:17:13.129Z,9.00
2024-02-19T13:19:42.194Z,7.28
2024-02-19T13:22:11.152Z,9.38
2024-02-19T13:24:38.280Z,6.93
2024-02-19T13:27:05.900Z,7.90
2024-02-19T13:29:32.732Z,8.52
2024-02-19T13:32:00.115Z,8.05
2024-02-19T13:34:27.990Z,7.03
2024-02-19T13:36:55.947Z,8.68
2024-02-19T13:39:22.984Z,8.60
2024-02-19T13:41:50.915Z,8.73
2024-02-19T13:44:18.315Z,7.28
2024-02-19T13:46:47.087Z,8.82
2024-02-19T13:49:14.163Z,8.50
2024-02-19T13:51:41.356Z,8.57
2024-02-19T13:54:08.394Z,9.70
2024-02-19T13:56:36.429Z,8.65
2024-02-19T13:59:06.848Z,10.48
2024-02-19T14:01:34.928Z,9.35
2024-02-19T14:04:05.268Z,9.65
2024-02-19T14:06:32.474Z,8.95
2024-02-19T14:08:59.838Z,9.32
2024-02-19T14:11:27.729Z,10.85
2024-02-19T14:14:01.360Z,10.48
2024-02-19T14:16:30.729Z,8.68
2024-02-19T14:18:58.236Z,7.28
2024-02-19T14:21:26.809Z,9.70
2024-02-19T14:23:56.618Z,9.20
2024-02-19T14:26:29.799Z,8.18
2024-02-19T14:28:57.170Z,6.70
2024-02-19T14:31:24.440Z,4.68
2024-02-19T14:33:52.450Z,6.10
2024-02-19T14:36:25.934Z,4.65
2024-02-19T14:38:53.962Z,7.20
2024-02-19T14:41:22.487Z,6.30
2024-02-19T14:43:50.480Z,6.57
2024-02-19T14:48:47.480Z,8.48
2024-02-19T14:51:18.959Z,4.80
2024-02-19T14:53:48.610Z,6.00
2024-02-19T14:56:16.119Z,5.50
2024-02-19T14:58:43.261Z,4.82
2024-02-19T15:01:10.477Z,7.45
2024-02-19T15:03:37.561Z,6.78
2024-02-19T15:06:07.190Z,7.07
2024-02-19T15:08:35.469Z,8.50
2024-02-19T15:11:03.186Z,5.85
2024-02-19T15:13:30.031Z,10.30
2024-02-19T15:15:57.744Z,9.32
2024-02-19T15:18:25.035Z,7.30
2024-02-19T15:20:53.810Z,8.35
2024-02-19T15:23:21.508Z,7.43
2024-02-19T15:25:49.800Z,8.55
2024-02-19T15:28:16.878Z,7.00
2024-02-19T15:30:44.300Z,8.13
2024-02-19T15:33:11.872Z,11.38
2024-02-19T15:35:38.986Z,12.75
2024-02-19T15:38:06.036Z,12.75
2024-02-19T15:40:36.022Z,12.27
2024-02-19T15:43:02.932Z,10.65
2024-02-19T15:45:30.354Z,11.73
2024-02-19T15:47:57.128Z,11.27
2024-02-19T15:50:24.311Z,11.60
2024-02-19T15:52:58.393Z,9.80
2024-02-19T15:55:31.846Z,9.20
2024-02-19T15:57:58.907Z,11.00
2024-02-19T16:00:26.304Z,11.82
2024-02-19T16:02:53.290Z,10.75
2024-02-19T16:05:20.602Z,10.30
2024-02-19T16:07:50.377Z,13.70
2024-02-19T16:12:46.316Z,10.35
2024-02-19T16:15:14.037Z,9.70
2024-02-19T16:17:41.642Z,9.23
2024-02-19T16:20:09.364Z,7.75
2024-02-19T16:22:36.735Z,5.97
2024-02-19T16:25:08.177Z,6.72
2024-02-19T16:27:36.792Z,5.90
2024-02-19T16:30:06.480Z,8.10
2024-02-19T16:32:35.153Z,8.43
2024-02-19T16:35:02.507Z,7.68
2024-02-19T16:37:29.685Z,14.05
2024-02-19T16:39:57.074Z,13.30
2024-02-19T16:42:23.920Z,8.60
2024-02-19T16:44:51.102Z,10.27
2024-02-19T16:47:17.913Z,10.23
2024-02-19T16:49:46.902Z,9.85
2024-02-19T16:52:14.112Z,12.98
2024-02-19T16:54:41.314Z,10.52
2024-02-19T16:57:08.053Z,9.90
2024-02-19T16:59:36.042Z,11.23
2024-02-19T17:02:03.379Z,14.38
2024-02-19T17:04:30.560Z,12.60
2024-02-19T17:06:57.667Z,13.02
2024-02-19T17:09:24.977Z,14.68
2024-02-19T17:11:51.821Z,14.38
2024-02-19T17:14:18.833Z,11.13
2024-02-19T17:16:50.482Z,13.32
2024-02-19T17:19:17.851Z,12.98
2024-02-19T17:21:44.802Z,14.60
2024-02-19T17:24:11.896Z,17.73
2024-02-19T17:26:40.318Z,20.83
2024-02-19T17:29:07.457Z,22.33
2024-02-19T17:31:35.802Z,28.33
2024-02-19T17:34:04.508Z,25.60
2024-02-19T17:36:33.134Z,25.25
2024-02-19T17:39:00.247Z,21.30
2024-02-19T17:41:28.188Z,19.65
2024-02-19T17:43:55.181Z,13.85
2024-02-19T17:46:22.284Z,14.90
2024-02-19T17:48:49.886Z,18.33
2024-02-19T17:51:22.368Z,18.42
2024-02-19T17:53:50.021Z,17.13
2024-02-19T17:56:16.931Z,17.40
2024-02-19T17:58:44.052Z,18.85
2024-02-19T18:01:10.951Z,19.25
2024-02-19T18:03:38.283Z,16.08
2024-02-19T18:06:05.738Z,22.98
2024-02-19T18:08:34.284Z,26.45
2024-02-19T18:11:01.639Z,20.63
2024-02-19T18:13:28.874Z,16.75
2024-02-19T18:15:55.737Z,12.32
2024-02-19T18:18:23.110Z,13.02
2024-02-19T18:20:50.085Z,16.73
2024-02-19T18:23:17.137Z,12.48
2024-02-19T18:25:43.994Z,13.23
2024-02-19T18:28:11.371Z,14.20
2024-02-19T18:30:38.247Z,12.18
2024-02-19T18:33:05.835Z,12.38
2024-02-19T18:35:34.762Z,11.40
2024-02-19T18:38:01.912Z,10.93
2024-02-19T18:40:29.282Z,11.18
2024-02-19T18:42:56.522Z,12.18
2024-02-19T18:45:24.868Z,11.32
2024-02-19T18:47:52.012Z,12.18
2024-02-19T18:50:19.426Z,15.98
2024-02-19T18:52:46.892Z,13.32
2024-02-19T18:55:13.883Z,16.75
2024-02-19T18:57:41.093Z,17.30
2024-02-19T19:00:11.021Z,14.73
2024-02-19T19:02:39.264Z,14.32
2024-02-19T19:05:06.592Z,14.25
2024-02-19T19:07:34.515Z,16.83
2024-02-19T19:10:01.907Z,24.90
2024-02-19T19:12:29.111Z,18.40
2024-02-19T19:14:55.822Z,24.15
2024-02-19T19:17:23.061Z,26.70
2024-02-19T19:19:50.350Z,28.20
2024-02-19T19:22:20.107Z,24.45
2024-02-19T19:24:48.167Z,27.67
2024-02-19T19:27:15.496Z,21.45
2024-02-19T19:29:43.514Z,18.65
2024-02-19T19:32:11.696Z,18.92
2024-02-19T19:34:39.960Z,21.02
2024-02-19T19:37:07.160Z,20.35
2024-02-19T19:39:33.968Z,21.48
2024-02-19T19:42:01.583Z,21.77
2024-02-19T19:44:28.555Z,18.48
2024-02-19T19:46:57.587Z,24.63
2024-02-19T19:49:24.811Z,34.90
2024-02-19T19:51:51.986Z,64.68
2024-02-19T19:54:18.900Z,28.13
2024-02-19T19:56:46.128Z,32.30
2024-02-19T19:59:13.195Z,61.40
2024-02-19T20:01:40.491Z,43.97
2024-02-19T20:04:08.137Z,24.65
2024-02-19T20:06:36.736Z,17.73
2024-02-19T20:09:04.217Z,17.15
2024-02-19T20:11:31.448Z,16.25
2024-02-19T20:13:58.737Z,17.75
2024-02-19T20:16:26.085Z,19.02
2024-02-19T20:18:53.152Z,17.10
2024-02-19T20:21:23.079Z,14.80
2024-02-19T20:23:49.864Z,14.63
2024-02-19T20:26:20.086Z,12.48
2024-02-19T20:28:46.902Z,12.05
2024-02-19T20:31:16.018Z,13.40
2024-02-19T20:33:42.990Z,14.15
2024-02-19T20:36:12.385Z,14.15
2024-02-19T20:38:39.891Z,13.40
2024-02-19T20:41:07.116Z,14.63
2024-02-19T20:43:35.173Z,13.65
2024-02-19T20:46:02.479Z,10.77
2024-02-19T20:48:29.878Z,12.35
2024-02-19T20:50:58.426Z,11.05
2024-02-19T20:53:25.261Z,11.95
2024-02-19T20:55:52.682Z,8.40
2024-02-19T20:58:19.636Z,11.38
2024-02-19T21:00:47.252Z,11.50
2024-02-19T21:03:14.271Z,13.55
2024-02-19T21:05:41.620Z,13.43
2024-02-19T21:08:10.322Z,13.27
2024-02-19T21:10:39.385Z,12.85
2024-02-19T21:13:06.439Z,13.73
2024-02-19T21:15:34.239Z,9.60
2024-02-19T21:18:07.585Z,11.50
2024-02-19T21:20:35.252Z,9.82
2024-02-19T21:23:02.272Z,8.43
2024-02-19T21:25:29.780Z,8.00
2024-02-19T21:27:56.754Z,8.15
2024-02-19T21:30:23.959Z,8.77
2024-02-19T21:32:59.534Z,7.88
2024-02-19T21:35:27.451Z,7.38
2024-02-19T21:37:54.466Z,10.23
2024-02-19T21:40:22.130Z,9.95
2024-02-19T21:42:49.032Z,10.32
2024-02-19T21:45:17.566Z,11.02
2024-02-19T21:47:45.295Z,9.88
2024-02-19T21:50:12.630Z,10.82
2024-02-19T21:52:40.244Z,7.82
2024-02-19T21:55:08.550Z,7.68
2024-02-19T21:57:37.083Z,7.40
2024-02-19T22:00:09.437Z,9.98
2024-02-19T22:02:36.536Z,8.85
2024-02-19T22:05:05.062Z,10.75
2024-02-19T22:07:36.133Z,11.63
2024-02-19T22:10:06.506Z,8.95
2024-02-19T22:15:01.053Z,14.13
2024-02-19T22:17:31.218Z,12.30
2024-02-19T22:19:58.509Z,12.63
2024-02-19T22:22:27.819Z,12.63
2024-02-19T22:24:55.310Z,11.75
2024-02-19T22:27:22.198Z,15.15
2024-02-19T22:29:49.415Z,10.55
2024-02-19T22:32:16.318Z,9.57
2024-02-19T22:34:46.665Z,9.95
2024-02-19T22:37:15.073Z,10.57
2024-02-19T22:39:43.522Z,9.68
2024-02-19T22:42:13.680Z,8.93
2024-02-19T22:44:44.107Z,9.82
2024-02-19T22:47:10.986Z,8.85
2024-02-19T22:49:39.594Z,10.95
2024-02-19T22:52:07.525Z,8.35
2024-02-19T22:54:35.274Z,10.77
2024-02-19T22:57:02.302Z,10.88
2024-02-19T22:59:29.570Z,9.20
2024-02-19T23:01:56.559Z,10.68
2024-02-19T23:04:24.052Z,10.35
2024-02-19T23:06:50.974Z,11.05
2024-02-19T23:09:18.086Z,10.38
2024-02-19T23:11:44.941Z,8.82
2024-02-19T23:14:12.046Z,10.40
2024-02-19T23:16:39.682Z,8.88
2024-02-19T23:19:07.659Z,7.25
2024-02-19T23:21:34.981Z,9.68
2024-02-19T23:24:03.541Z,10.18
2024-02-19T23:26:30.945Z,7.80
2024-02-19T23:28:58.015Z,8.05
2024-02-19T23:31:24.939Z,7.72
2024-02-19T23:33:52.195Z,8.70
2024-02-19T23:36:20.134Z,6.68
2024-02-19T23:38:47.205Z,7.80
2024-02-19T23:41:14.102Z,9.13
2024-02-19T23:43:43.766Z,9.88
2024-02-19T23:46:11.715Z,9.32
2024-02-19T23:48:38.752Z,8.05
2024-02-19T23:51:06.125Z,11.05
2024-02-19T23:53:33.966Z,8.30
2024-02-19T23:56:00.811Z,7.95
2024-02-19T23:58:27.970Z,8.40
